Time;durP1;ratioP1;P1;durP2;ratioP2;P2;SDS_P1;SDS_P2;PMS_P1;PMS_P2;Temp;Humidity;BMP_temperature;BMP_pressure;BME280_temperature;BME280_humidity;BME280_pressure;Samples;Min_cycle;Max_cycle;Signal;HPM_P1;HPM_P2
2020/12/26 00:02:08;;;;;;;12.73;9.37;;;4.00;99.90;;;;;;4963505;28;20199;-77
2020/12/26 00:04:34;;;;;;;18.77;13.10;;;4.00;99.90;;;;;;4952367;29;20175;-75
2020/12/26 00:07:01;;;;;;;21.63;12.30;;;4.00;99.90;;;;;;4958959;28;20854;-76
2020/12/26 00:09:26;;;;;;;17.60;12.70;;;4.00;99.90;;;;;;4971569;28;20198;-76
2020/12/26 00:11:52;;;;;;;18.93;12.90;;;4.00;99.90;;;;;;4966839;28;20219;-77
2020/12/26 00:14:18;;;;;;;23.97;13.40;;;4.00;99.90;;;;;;4952392;29;20164;-74
2020/12/26 00:16:44;;;;;;;22.58;13.55;;;3.90;99.90;;;;;;4938140;28;20229;-77
2020/12/26 00:19:14;;;;;;;22.47;15.20;;;3.90;99.90;;;;;;4971825;28;20646;-77
2020/12/26 00:21:41;;;;;;;21.85;15.02;;;3.90;99.90;;;;;;4970623;28;20452;-75
2020/12/26 00:24:07;;;;;;;16.88;14.48;;;3.90;99.90;;;;;;4953918;28;20175;-77
2020/12/26 00:26:33;;;;;;;21.70;14.77;;;3.90;99.90;;;;;;4958566;28;20215;-77
2020/12/26 00:28:59;;;;;;;16.25;13.55;;;3.90;99.90;;;;;;4935410;29;20195;-76
2020/12/26 00:31:24;;;;;;;19.60;13.90;;;3.90;99.90;;;;;;4962755;28;20256;-76
2020/12/26 00:33:50;;;;;;;24.90;16.10;;;3.90;99.90;;;;;;4971658;28;20415;-76
2020/12/26 00:36:16;;;;;;;23.07;13.50;;;3.90;99.90;;;;;;4961067;28;20230;-77
2020/12/26 00:38:41;;;;;;;21.80;15.90;;;4.00;99.90;;;;;;4934217;29;20311;-78
2020/12/26 00:41:14;;;;;;;21.37;15.07;;;3.90;99.90;;;;;;4951961;28;20227;-76
2020/12/26 00:43:41;;;;;;;19.55;13.15;;;3.90;99.90;;;;;;4953458;28;20184;-76
2020/12/26 00:46:06;;;;;;;17.70;13.73;;;4.00;99.90;;;;;;4953603;28;20215;-77
2020/12/26 00:48:33;;;;;;;19.53;13.33;;;3.90;99.90;;;;;;4956779;28;20194;-76
2020/12/26 00:50:58;;;;;;;22.45;15.68;;;3.90;99.90;;;;;;4951488;28;20218;-76
2020/12/26 00:53:24;;;;;;;20.40;14.03;;;3.90;99.90;;;;;;4964508;28;21047;-76
2020/12/26 00:55:50;;;;;;;22.23;15.00;;;4.00;99.90;;;;;;4954306;28;20249;-76
2020/12/26 00:58:16;;;;;;;21.90;13.83;;;3.90;99.90;;;;;;4963228;28;20624;-76
2020/12/26 01:00:41;;;;;;;24.57;15.27;;;4.00;99.90;;;;;;4970800;28;20219;-77
2020/12/26 01:03:07;;;;;;;18.13;14.43;;;4.00;99.90;;;;;;4961388;28;20251;-77
2020/12/26 01:05:33;;;;;;;16.77;13.80;;;3.90;99.90;;;;;;4951442;28;20275;-77
2020/12/26 01:07:58;;;;;;;17.10;13.10;;;3.90;99.90;;;;;;4935158;29;20270;-76
2020/12/26 01:10:24;;;;;;;20.23;13.30;;;4.00;99.90;;;;;;4951650;28;20246;-77
2020/12/26 01:12:50;;;;;;;23.63;14.93;;;3.90;99.90;;;;;;4962686;28;20191;-76
2020/12/26 01:15:16;;;;;;;15.20;13.17;;;3.90;99.90;;;;;;4969580;28;20215;-75
2020/12/26 01:17:45;;;;;;;14.32;12.55;;;3.90;99.90;;;;;;4953787;28;20172;-77
2020/12/26 01:20:11;;;;;;;15.68;12.63;;;4.00;99.90;;;;;;4971688;28;20682;-77
2020/12/26 01:22:37;;;;;;;16.83;12.17;;;3.90;99.90;;;;;;4953479;28;20203;-76
2020/12/26 01:25:06;;;;;;;14.60;11.30;;;3.90;99.90;;;;;;4955807;28;20215;-76
2020/12/26 01:27:33;;;;;;;13.40;11.40;;;3.80;99.90;;;;;;4952012;28;20287;-77
2020/12/26 01:29:59;;;;;;;17.30;11.07;;;3.80;99.90;;;;;;4964618;28;20593;-76
2020/12/26 01:32:27;;;;;;;16.93;11.40;;;3.90;99.90;;;;;;4953505;28;20195;-76
2020/12/26 01:34:55;;;;;;;13.45;11.48;;;3.90;99.90;;;;;;4958159;28;20223;-77
2020/12/26 01:37:20;;;;;;;11.85;10.57;;;3.90;99.90;;;;;;4955316;28;20168;-76
2020/12/26 01:39:46;;;;;;;20.23;12.73;;;3.90;99.90;;;;;;4970459;28;20207;-76
2020/12/26 01:42:12;;;;;;;15.30;11.80;;;3.80;99.90;;;;;;4950915;28;20210;-76
2020/12/26 01:44:39;;;;;;;14.80;10.83;;;3.80;99.90;;;;;;4951132;28;20171;-75
2020/12/26 01:47:05;;;;;;;12.20;10.90;;;3.80;99.90;;;;;;4952154;28;20573;-76
2020/12/26 01:49:31;;;;;;;20.75;12.35;;;3.90;99.90;;;;;;4951643;28;20176;-76
2020/12/26 01:51:57;;;;;;;15.60;11.37;;;3.80;99.90;;;;;;4965985;28;20207;-76
2020/12/26 01:54:24;;;;;;;18.25;11.52;;;3.80;99.90;;;;;;4956353;28;20414;-77
2020/12/26 01:56:51;;;;;;;14.90;11.52;;;3.80;99.90;;;;;;4964293;28;20214;-76
2020/12/26 01:59:16;;;;;;;12.90;11.23;;;3.80;99.90;;;;;;4937687;29;20659;-77
2020/12/26 02:01:43;;;;;;;17.20;11.20;;;3.80;99.90;;;;;;4962456;28;20230;-76
2020/12/26 02:04:10;;;;;;;12.43;10.27;;;3.80;99.90;;;;;;4973820;28;20159;-76
2020/12/26 02:06:38;;;;;;;12.70;10.80;;;3.80;99.90;;;;;;4954242;28;20275;-77
2020/12/26 02:09:05;;;;;;;15.98;11.38;;;3.80;99.90;;;;;;4954916;29;20257;-77
2020/12/26 02:11:32;;;;;;;20.27;11.38;;;3.80;99.90;;;;;;4972031;28;20265;-76
2020/12/26 02:13:57;;;;;;;15.65;10.77;;;3.80;99.90;;;;;;4973865;28;20646;-76
2020/12/26 02:16:23;;;;;;;13.33;10.53;;;3.80;99.90;;;;;;4957647;28;20227;-76
2020/12/26 02:18:49;;;;;;;12.57;10.20;;;3.70;99.90;;;;;;4955773;28;20176;-76
2020/12/26 02:21:16;;;;;;;16.13;11.30;;;3.70;99.90;;;;;;4953868;28;20211;-76
2020/12/26 02:23:45;;;;;;;15.02;11.25;;;3.70;99.90;;;;;;4955215;28;20467;-76
2020/12/26 02:26:12;;;;;;;13.60;10.50;;;3.80;99.90;;;;;;4954012;28;20310;-77
2020/12/26 02:28:38;;;;;;;11.70;10.50;;;3.70;99.90;;;;;;4966793;28;20270;-77
2020/12/26 02:31:05;;;;;;;13.65;11.20;;;3.70;99.90;;;;;;4972721;28;20203;-76
2020/12/26 02:33:32;;;;;;;12.93;10.50;;;3.80;99.90;;;;;;4973406;28;20188;-76
2020/12/26 02:35:58;;;;;;;12.07;10.85;;;3.80;99.90;;;;;;4971486;28;20297;-77
2020/12/26 02:38:23;;;;;;;14.97;11.77;;;3.80;99.90;;;;;;4956908;28;20224;-77
2020/12/26 02:40:49;;;;;;;11.77;10.07;;;3.80;99.90;;;;;;4953920;28;20646;-77
2020/12/26 02:43:20;;;;;;;14.90;12.33;;;3.80;99.90;;;;;;4955800;28;20207;-76
2020/12/26 02:45:48;;;;;;;16.15;11.65;;;3.80;99.90;;;;;;4964958;28;20442;-77
2020/12/26 02:48:14;;;;;;;19.02;13.15;;;3.80;99.90;;;;;;4966647;28;20183;-75
2020/12/26 02:50:40;;;;;;;14.30;12.02;;;3.80;99.90;;;;;;4953415;29;20282;-75
2020/12/26 02:53:06;;;;;;;17.70;12.63;;;3.70;99.90;;;;;;4937083;29;20195;-76
2020/12/26 02:55:31;;;;;;;25.90;12.80;;;3.70;99.90;;;;;;4953166;29;20623;-76
2020/12/26 02:57:57;;;;;;;18.77;13.70;;;3.70;99.90;;;;;;4938958;28;20167;-76
2020/12/26 03:00:23;;;;;;;15.77;12.50;;;3.70;99.90;;;;;;4952993;28;20243;-76
2020/12/26 03:02:49;;;;;;;15.15;12.60;;;3.80;99.90;;;;;;4953791;28;20235;-76
2020/12/26 03:05:14;;;;;;;16.67;13.20;;;3.70;99.90;;;;;;4972215;28;20211;-77
2020/12/26 03:07:40;;;;;;;14.70;13.20;;;3.80;99.90;;;;;;4972468;28;20253;-77
2020/12/26 03:10:06;;;;;;;16.63;13.70;;;3.80;99.90;;;;;;4955138;28;20203;-75
2020/12/26 03:12:32;;;;;;;16.70;12.00;;;3.80;99.90;;;;;;4971686;28;20294;-77
2020/12/26 03:14:57;;;;;;;15.30;12.67;;;3.80;99.90;;;;;;4972271;28;20682;-77
2020/12/26 03:17:23;;;;;;;16.87;12.00;;;3.80;99.90;;;;;;4963419;28;20179;-77
2020/12/26 03:19:48;;;;;;;16.30;12.20;;;3.90;99.90;;;;;;4961237;28;20579;-76
2020/12/26 03:22:14;;;;;;;14.40;12.33;;;3.90;99.90;;;;;;4954563;28;20202;-77
2020/12/26 03:24:40;;;;;;;15.50;13.80;;;3.90;99.90;;;;;;4972122;28;20258;-76
2020/12/26 03:27:05;;;;;;;18.80;13.00;;;3.90;99.90;;;;;;4972216;28;20179;-76
2020/12/26 03:29:31;;;;;;;16.70;12.30;;;3.90;99.90;;;;;;4972141;28;20163;-76
2020/12/26 03:31:57;;;;;;;16.73;12.10;;;3.90;99.90;;;;;;4955975;28;20595;-76
2020/12/26 03:34:23;;;;;;;18.40;12.33;;;3.90;99.90;;;;;;4952704;28;20160;-77
2020/12/26 03:36:49;;;;;;;17.57;12.43;;;4.00;99.90;;;;;;4967531;28;20226;-77
2020/12/26 03:39:14;;;;;;;14.93;11.88;;;3.90;99.90;;;;;;4971863;28;20462;-77
2020/12/26 03:41:40;;;;;;;13.93;12.40;;;4.00;99.90;;;;;;4954260;28;20616;-77
2020/12/26 03:44:06;;;;;;;13.90;11.57;;;3.90;99.90;;;;;;4968051;28;20175;-77
2020/12/26 03:46:31;;;;;;;16.53;11.90;;;4.00;99.90;;;;;;4952388;28;20211;-76
2020/12/26 03:48:57;;;;;;;15.17;12.67;;;4.00;99.90;;;;;;4955177;28;20827;-77
2020/12/26 03:51:23;;;;;;;16.10;12.00;;;3.90;99.90;;;;;;4971660;28;20214;-76
2020/12/26 03:53:48;;;;;;;14.20;11.80;;;3.90;99.90;;;;;;4971368;28;20199;-77
2020/12/26 03:56:18;;;;;;;15.20;12.90;;;3.90;99.90;;;;;;4934935;29;20713;-76
2020/12/26 03:58:43;;;;;;;15.98;12.70;;;3.90;99.90;;;;;;4964379;28;20179;-76
2020/12/26 04:01:09;;;;;;;16.10;12.80;;;3.90;99.90;;;;;;4971094;28;20215;-77
2020/12/26 04:03:35;;;;;;;14.57;12.87;;;3.90;99.90;;;;;;4958522;28;20434;-77
2020/12/26 04:06:01;;;;;;;14.87;12.60;;;3.90;99.90;;;;;;4962003;28;20439;-76
2020/12/26 04:08:26;;;;;;;21.30;13.50;;;4.00;99.90;;;;;;4971233;28;20175;-77
2020/12/26 04:10:52;;;;;;;14.30;11.60;;;4.00;99.90;;;;;;4971533;28;20234;-76
2020/12/26 04:13:18;;;;;;;17.73;13.10;;;3.90;99.90;;;;;;4953344;28;20196;-76
2020/12/26 04:15:43;;;;;;;17.80;12.17;;;3.90;99.90;;;;;;4934814;29;20235;-77
2020/12/26 04:18:09;;;;;;;18.13;14.10;;;3.90;99.90;;;;;;4969617;28;20171;-77
2020/12/26 04:20:35;;;;;;;13.70;12.27;;;3.90;99.90;;;;;;4970627;28;20229;-77
2020/12/26 04:23:01;;;;;;;17.20;12.83;;;3.90;99.90;;;;;;4955760;28;20207;-76
2020/12/26 04:25:26;;;;;;;16.20;14.33;;;4.00;99.90;;;;;;4934836;29;20216;-76
2020/12/26 04:27:52;;;;;;;20.77;15.13;;;3.90;99.90;;;;;;4952530;29;20172;-76
2020/12/26 04:30:17;;;;;;;14.90;13.30;;;3.90;99.90;;;;;;4939267;28;20705;-76
2020/12/26 04:32:43;;;;;;;17.80;14.87;;;3.90;99.90;;;;;;4971597;28;20197;-75
2020/12/26 04:35:09;;;;;;;18.73;14.63;;;3.90;99.90;;;;;;4969880;28;20207;-76
2020/12/26 04:37:35;;;;;;;16.70;14.30;;;4.00;99.90;;;;;;4971839;28;20167;-76
2020/12/26 04:40:00;;;;;;;18.23;14.73;;;4.00;99.90;;;;;;4956963;28;20237;-76
2020/12/26 04:42:26;;;;;;;18.83;15.37;;;4.00;99.90;;;;;;4952007;29;20247;-75
2020/12/26 04:44:53;;;;;;;22.40;15.18;;;4.00;99.90;;;;;;4964037;28;20234;-76
2020/12/26 04:47:29;;;;;;;16.27;14.73;;;4.00;99.90;;;;;;4971346;28;20163;-77
2020/12/26 04:49:58;;;;;;;18.02;15.32;;;4.00;99.90;;;;;;4958632;28;20199;-77
2020/12/26 04:52:29;;;;;;;17.95;14.95;;;4.00;99.90;;;;;;4934917;29;20196;-77
2020/12/26 04:54:55;;;;;;;17.60;13.77;;;4.00;99.90;;;;;;4951509;28;20204;-76
2020/12/26 04:57:21;;;;;;;19.10;14.73;;;4.00;99.90;;;;;;4952333;28;20333;-76
2020/12/26 04:59:47;;;;;;;16.35;14.13;;;4.10;99.90;;;;;;4951438;28;20208;-78
2020/12/26 05:02:14;;;;;;;18.63;14.27;;;4.10;99.90;;;;;;4959717;28;20198;-77
2020/12/26 05:04:42;;;;;;;17.10;14.15;;;4.10;99.90;;;;;;4970670;28;20414;-77
2020/12/26 05:07:08;;;;;;;16.13;13.90;;;4.10;99.90;;;;;;4952438;28;20686;-76
2020/12/26 05:09:34;;;;;;;19.85;13.77;;;4.10;99.90;;;;;;4951662;28;20544;-77
2020/12/26 05:12:00;;;;;;;17.73;13.73;;;4.10;99.90;;;;;;4951801;29;20187;-75
2020/12/26 05:14:29;;;;;;;14.52;13.00;;;4.10;99.90;;;;;;4961399;28;20218;-77
2020/12/26 05:16:55;;;;;;;13.85;12.00;;;4.00;99.90;;;;;;4971291;28;20203;-77
2020/12/26 05:19:21;;;;;;;21.77;15.27;;;4.00;99.90;;;;;;4959243;28;20183;-78
2020/12/26 05:21:52;;;;;;;18.48;13.48;;;4.00;99.90;;;;;;4970832;28;20569;-77
2020/12/26 05:24:18;;;;;;;16.15;14.38;;;4.00;99.90;;;;;;4970571;28;20175;-76
2020/12/26 05:26:49;;;;;;;16.30;12.13;;;4.00;99.90;;;;;;4974470;28;20222;-76
2020/12/26 05:29:16;;;;;;;18.73;12.60;;;4.10;99.90;;;;;;4967445;28;20206;-77
2020/12/26 05:31:53;;;;;;;12.77;11.48;;;4.10;99.90;;;;;;4954850;28;20235;-76
2020/12/26 05:34:19;;;;;;;17.77;14.10;;;4.10;99.90;;;;;;4938350;29;20274;-77
2020/12/26 05:36:45;;;;;;;14.68;12.35;;;4.10;99.90;;;;;;4937590;29;20212;-75
2020/12/26 05:39:12;;;;;;;19.47;12.87;;;4.00;99.90;;;;;;4956305;28;20589;-76
2020/12/26 05:41:43;;;;;;;16.92;13.07;;;4.00;99.90;;;;;;4973521;28;20718;-76
2020/12/26 05:44:09;;;;;;;13.68;11.63;;;4.00;99.90;;;;;;4974596;28;20225;-76
2020/12/26 05:46:35;;;;;;;16.20;12.05;;;4.00;99.90;;;;;;4965204;28;20219;-76
2020/12/26 05:49:25;;;;;;;17.20;11.83;;;4.00;99.90;;;;;;4955415;29;20168;-76
2020/12/26 05:51:53;;;;;;;13.52;11.65;;;4.00;99.90;;;;;;4938602;29;20741;-75
2020/12/26 05:54:19;;;;;;;18.42;11.48;;;4.00;99.90;;;;;;4961497;28;20171;-77
2020/12/26 05:56:45;;;;;;;12.75;11.40;;;4.00;99.90;;;;;;4956641;28;20215;-77
2020/12/26 05:59:24;;;;;;;14.53;11.40;;;3.90;99.90;;;;;;4968825;28;20176;-77
2020/12/26 06:01:50;;;;;;;15.82;11.73;;;4.00;99.90;;;;;;4954288;28;20460;-77
2020/12/26 06:04:20;;;;;;;13.23;11.38;;;3.90;99.90;;;;;;4966284;28;20530;-76
2020/12/26 06:06:52;;;;;;;14.00;10.52;;;4.00;99.90;;;;;;4973685;28;20246;-77
2020/12/26 06:09:20;;;;;;;12.88;10.20;;;3.90;99.90;;;;;;4961993;28;20175;-77
2020/12/26 06:11:49;;;;;;;11.52;9.35;;;3.80;99.90;;;;;;4937054;29;20216;-77
2020/12/26 06:14:19;;;;;;;12.88;9.77;;;3.80;99.90;;;;;;4965413;28;20176;-76
2020/12/26 06:16:55;;;;;;;17.33;10.38;;;3.80;99.90;;;;;;4970961;28;20289;-76
2020/12/26 06:19:25;;;;;;;9.20;8.15;;;3.80;99.90;;;;;;4937576;29;20267;-77
2020/12/26 06:21:51;;;;;;;10.57;8.35;;;3.80;99.90;;;;;;4956425;28;20698;-77
2020/12/26 06:24:17;;;;;;;9.67;8.40;;;3.70;99.90;;;;;;4973806;28;20225;-76
2020/12/26 06:26:49;;;;;;;10.17;8.10;;;3.80;99.90;;;;;;4951558;28;20717;-77
2020/12/26 06:29:18;;;;;;;9.77;7.80;;;3.70;99.90;;;;;;4973921;28;20402;-77
2020/12/26 06:31:50;;;;;;;11.68;8.93;;;3.70;99.90;;;;;;4960054;28;20216;-77
2020/12/26 06:34:18;;;;;;;8.43;7.60;;;3.70;99.90;;;;;;4958891;28;20210;-77
2020/12/26 06:36:45;;;;;;;9.57;6.50;;;3.70;99.90;;;;;;4973052;28;20310;-76
2020/12/26 06:39:26;;;;;;;11.30;6.70;;;3.70;99.90;;;;;;4971655;28;20168;-77
2020/12/26 06:42:17;;;;;;;9.82;6.97;;;3.70;99.90;;;;;;4954164;28;20234;-77
2020/12/26 06:44:45;;;;;;;7.78;6.80;;;3.70;99.90;;;;;;4960522;28;20265;-76
2020/12/26 06:47:35;;;;;;;8.38;6.30;;;3.70;99.90;;;;;;4973413;28;20164;-76
2020/12/26 06:50:16;;;;;;;7.60;6.90;;;3.60;99.90;;;;;;4957166;28;20282;-74
2020/12/26 06:52:42;;;;;;;9.10;6.63;;;3.60;99.90;;;;;;4956069;28;20821;-76
2020/12/26 06:55:07;;;;;;;7.50;6.27;;;3.60;99.90;;;;;;4955321;28;20211;-76
2020/12/26 06:57:37;;;;;;;8.93;6.03;;;3.60;99.90;;;;;;4973097;28;20172;-76
2020/12/26 07:00:22;;;;;;;7.95;5.85;;;3.50;99.90;;;;;;4972649;28;20225;-76
2020/12/26 07:02:48;;;;;;;8.75;6.05;;;3.50;99.90;;;;;;4953429;28;20242;-76
2020/12/26 07:05:37;;;;;;;7.40;5.60;;;3.40;99.90;;;;;;4953535;29;20661;-76
2020/12/26 07:08:03;;;;;;;8.05;5.68;;;3.40;99.90;;;;;;4957354;28;20172;-75
2020/12/26 07:10:37;;;;;;;7.07;6.33;;;3.40;99.90;;;;;;4972781;28;20223;-76
2020/12/26 07:13:02;;;;;;;7.82;6.88;;;3.40;99.90;;;;;;4969864;28;20195;-76
2020/12/26 07:15:32;;;;;;;11.00;6.83;;;3.40;99.90;;;;;;4941470;28;20215;-77
2020/12/26 07:18:22;;;;;;;10.23;5.35;;;3.40;99.90;;;;;;4972089;28;20536;-76
2020/12/26 07:20:49;;;;;;;8.10;5.90;;;3.40;99.90;;;;;;4972527;28;20273;-76
2020/12/26 07:23:16;;;;;;;6.78;6.07;;;3.40;99.90;;;;;;4957569;28;20196;-76
2020/12/26 07:25:41;;;;;;;6.53;5.85;;;3.50;99.90;;;;;;4967845;28;20214;-76
2020/12/26 07:28:07;;;;;;;6.87;6.17;;;3.50;99.90;;;;;;4971993;28;20638;-76
2020/12/26 07:30:36;;;;;;;10.40;6.53;;;3.50;99.90;;;;;;4954961;28;20230;-76
2020/12/26 07:33:02;;;;;;;9.05;6.28;;;3.50;99.90;;;;;;4961873;28;20555;-76
2020/12/26 07:35:30;;;;;;;8.10;5.90;;;3.40;99.90;;;;;;4952953;28;20226;-76
2020/12/26 07:38:02;;;;;;;9.15;6.18;;;3.40;99.90;;;;;;4963438;28;20505;-76
2020/12/26 07:40:34;;;;;;;10.80;6.93;;;3.40;99.90;;;;;;4972059;28;20681;-75
2020/12/26 07:43:13;;;;;;;9.95;5.78;;;3.40;99.90;;;;;;4952039;28;20198;-75
2020/12/26 07:45:41;;;;;;;9.55;6.93;;;3.40;99.90;;;;;;4954611;28;20209;-76
2020/12/26 07:48:07;;;;;;;6.07;5.35;;;3.40;99.90;;;;;;4971487;28;20217;-77
2020/12/26 07:50:38;;;;;;;8.57;6.60;;;3.40;99.90;;;;;;4967907;28;20204;-77
2020/12/26 07:53:10;;;;;;;9.23;6.25;;;3.40;99.90;;;;;;4935528;29;20327;-76
2020/12/26 07:55:37;;;;;;;7.30;6.53;;;3.40;99.90;;;;;;4953177;28;20223;-76
2020/12/26 07:58:05;;;;;;;8.80;6.25;;;3.40;99.90;;;;;;4954338;28;20198;-77
2020/12/26 08:00:35;;;;;;;11.68;7.10;;;3.40;99.90;;;;;;4953264;28;20268;-77
2020/12/26 08:03:04;;;;;;;7.22;5.60;;;3.40;99.90;;;;;;4972001;28;20190;-77
2020/12/26 08:05:31;;;;;;;7.65;6.68;;;3.40;99.90;;;;;;4946589;28;20556;-76
2020/12/26 08:07:58;;;;;;;8.70;6.70;;;3.40;99.90;;;;;;4936581;28;20682;-76
2020/12/26 08:10:25;;;;;;;7.68;6.57;;;3.40;99.90;;;;;;4971329;28;20728;-76
2020/12/26 08:12:58;;;;;;;12.27;6.50;;;3.40;99.90;;;;;;4971138;28;20721;-76
2020/12/26 08:15:31;;;;;;;10.98;5.20;;;3.40;99.90;;;;;;4952509;28;20702;-76
2020/12/26 08:18:02;;;;;;;7.00;5.50;;;3.40;99.90;;;;;;4953407;28;20176;-76
2020/12/26 08:20:29;;;;;;;5.75;5.15;;;3.40;99.90;;;;;;4951961;28;20223;-76
2020/12/26 08:22:56;;;;;;;7.10;5.05;;;3.50;99.90;;;;;;4952399;28;20195;-75
2020/12/26 08:25:24;;;;;;;5.63;4.95;;;3.50;99.90;;;;;;4971777;28;20257;-77
2020/12/26 08:27:50;;;;;;;7.80;5.70;;;3.40;99.90;;;;;;4972588;28;20642;-77
2020/12/26 08:30:23;;;;;;;6.25;4.72;;;3.40;99.90;;;;;;4969723;28;20640;-76
2020/12/26 08:33:07;;;;;;;6.50;4.85;;;3.40;99.90;;;;;;4960760;28;20687;-77
2020/12/26 08:35:35;;;;;;;6.97;4.78;;;3.40;99.90;;;;;;4951782;28;20306;-76
2020/12/26 08:38:17;;;;;;;9.38;6.35;;;3.50;99.90;;;;;;4964489;28;20709;-76
2020/12/26 08:40:44;;;;;;;7.22;5.40;;;3.50;99.90;;;;;;4971649;28;20211;-76
2020/12/26 08:43:13;;;;;;;6.72;5.93;;;3.50;99.90;;;;;;4970225;28;20573;-76
2020/12/26 08:45:39;;;;;;;7.57;5.50;;;3.50;99.90;;;;;;4971953;28;20273;-77
2020/12/26 08:48:19;;;;;;;8.30;4.90;;;3.60;99.90;;;;;;4971302;28;20175;-76
2020/12/26 08:51:00;;;;;;;8.45;5.60;;;3.60;99.90;;;;;;4971301;28;20339;-77
2020/12/26 08:53:26;;;;;;;5.70;4.85;;;3.60;99.90;;;;;;4960822;28;20262;-76
2020/12/26 08:55:56;;;;;;;8.57;5.07;;;3.60;99.90;;;;;;4934683;29;20231;-75
2020/12/26 08:58:25;;;;;;;8.48;5.10;;;3.60;99.90;;;;;;4971824;28;20167;-76
2020/12/26 09:00:53;;;;;;;7.35;6.03;;;3.60;99.90;;;;;;4958795;28;20219;-77
2020/12/26 09:03:29;;;;;;;10.20;5.30;;;3.70;99.90;;;;;;4958218;28;20315;-77
2020/12/26 09:06:01;;;;;;;6.63;4.65;;;3.70;99.90;;;;;;4975093;28;20210;-77
2020/12/26 09:08:28;;;;;;;7.68;5.03;;;3.70;99.90;;;;;;4974301;28;20183;-76
2020/12/26 09:11:11;;;;;;;6.88;4.97;;;3.70;99.90;;;;;;4957758;28;20221;-76
2020/12/26 09:13:40;;;;;;;9.75;4.85;;;3.70;99.90;;;;;;4973831;28;20257;-75
2020/12/26 09:16:08;;;;;;;6.72;4.57;;;3.80;99.90;;;;;;4974963;28;20222;-76
2020/12/26 09:18:36;;;;;;;6.03;4.05;;;3.80;99.90;;;;;;4972792;28;20167;-75
2020/12/26 09:21:02;;;;;;;5.18;3.60;;;3.80;99.90;;;;;;4955764;28;20207;-75
2020/12/26 09:23:38;;;;;;;6.00;3.97;;;3.90;99.90;;;;;;4956516;28;20199;-76
2020/12/26 09:26:17;;;;;;;4.82;3.83;;;3.90;99.90;;;;;;4956169;28;20218;-76
2020/12/26 09:28:51;;;;;;;6.97;4.75;;;4.00;99.90;;;;;;4966196;28;20171;-76
2020/12/26 09:31:19;;;;;;;8.23;4.25;;;4.00;99.90;;;;;;4964561;28;20211;-76
2020/12/26 09:33:45;;;;;;;7.25;3.88;;;4.10;99.90;;;;;;4984266;28;20191;-76
2020/12/26 09:36:15;;;;;;;6.38;3.67;;;4.10;99.90;;;;;;4974657;28;20269;-76
2020/12/26 09:38:41;;;;;;;6.95;4.43;;;4.10;99.90;;;;;;4957759;28;20201;-75
2020/12/26 09:41:15;;;;;;;5.80;4.47;;;4.10;99.90;;;;;;4974339;28;20576;-75
2020/12/26 09:43:42;;;;;;;5.13;3.72;;;4.10;99.90;;;;;;4974865;28;20187;-76
2020/12/26 09:46:08;;;;;;;5.20;3.67;;;4.20;99.90;;;;;;4956848;28;20589;-75
2020/12/26 09:48:34;;;;;;;5.90;4.23;;;4.20;99.90;;;;;;4969359;28;20186;-76
2020/12/26 09:50:59;;;;;;;4.73;3.90;;;4.30;99.90;;;;;;4976173;28;20444;-76
2020/12/26 09:53:26;;;;;;;5.97;4.57;;;4.30;99.90;;;;;;4983827;28;20748;-77
2020/12/26 09:55:52;;;;;;;5.78;3.42;;;4.30;99.90;;;;;;4974931;28;20214;-77
2020/12/26 09:58:17;;;;;;;5.57;3.23;;;4.30;99.90;;;;;;4966731;28;20203;-76
2020/12/26 10:00:46;;;;;;;7.47;3.40;;;4.30;99.90;;;;;;4971480;28;20306;-74
2020/12/26 10:03:12;;;;;;;10.63;3.33;;;4.30;99.90;;;;;;4950454;28;20823;-75
2020/12/26 10:05:38;;;;;;;5.83;3.63;;;4.30;99.90;;;;;;4955107;28;20638;-77
2020/12/26 10:08:04;;;;;;;4.17;3.40;;;4.30;99.90;;;;;;4963978;28;20258;-77
2020/12/26 10:10:29;;;;;;;4.83;3.30;;;4.40;99.90;;;;;;4956063;28;20270;-74
2020/12/26 10:12:55;;;;;;;3.63;3.13;;;4.50;99.90;;;;;;4973687;28;20445;-76
2020/12/26 10:15:21;;;;;;;6.63;4.13;;;4.50;99.90;;;;;;4936288;28;20229;-76
2020/12/26 10:17:47;;;;;;;3.47;3.00;;;4.60;99.90;;;;;;4961780;28;20206;-74
2020/12/26 10:20:13;;;;;;;4.00;3.00;;;4.60;99.90;;;;;;4955221;28;20455;-75
2020/12/26 10:22:38;;;;;;;4.37;2.70;;;4.70;99.90;;;;;;4938618;29;20291;-75
2020/12/26 10:25:04;;;;;;;4.97;2.80;;;4.70;99.90;;;;;;4954774;29;20172;-76
2020/12/26 10:27:30;;;;;;;4.25;2.42;;;4.70;99.90;;;;;;4956324;28;20171;-76
2020/12/26 10:29:55;;;;;;;5.77;2.73;;;4.70;99.90;;;;;;4955275;28;20643;-75
2020/12/26 10:32:21;;;;;;;5.00;2.43;;;4.70;99.90;;;;;;4955542;28;20184;-76
2020/12/26 10:34:47;;;;;;;4.93;2.83;;;4.70;99.90;;;;;;4955269;28;20184;-76
2020/12/26 10:37:15;;;;;;;3.27;2.50;;;4.60;99.90;;;;;;4938041;29;20219;-77
2020/12/26 10:39:42;;;;;;;3.00;2.70;;;4.60;99.90;;;;;;4958683;28;20542;-76
2020/12/26 10:42:08;;;;;;;7.40;2.90;;;4.70;99.90;;;;;;4974170;28;20219;-76
2020/12/26 10:44:34;;;;;;;5.60;2.40;;;4.60;99.90;;;;;;4974009;28;20539;-76
2020/12/26 10:47:00;;;;;;;6.15;3.55;;;4.70;99.90;;;;;;4973920;28;20584;-75
2020/12/26 10:49:26;;;;;;;5.10;2.97;;;4.80;99.90;;;;;;4956506;28;20175;-75
2020/12/26 10:51:51;;;;;;;3.87;2.47;;;4.80;99.90;;;;;;4973439;28;20226;-77
2020/12/26 10:54:17;;;;;;;4.47;2.67;;;4.80;99.90;;;;;;4970375;28;20175;-77
2020/12/26 10:56:49;;;;;;;3.80;2.60;;;4.80;99.90;;;;;;4973684;28;20298;-77
2020/12/26 10:59:15;;;;;;;3.88;2.75;;;4.80;99.90;;;;;;4964648;28;20168;-76
2020/12/26 11:01:41;;;;;;;3.58;2.05;;;4.80;99.90;;;;;;4953504;28;20331;-77
2020/12/26 11:04:07;;;;;;;3.28;2.13;;;4.90;99.90;;;;;;4971545;28;20265;-76
2020/12/26 11:06:33;;;;;;;4.63;2.53;;;4.90;99.90;;;;;;4954923;28;20215;-75
2020/12/26 11:08:59;;;;;;;3.60;2.55;;;4.90;99.90;;;;;;4954825;28;20248;-76
2020/12/26 11:11:25;;;;;;;4.33;2.57;;;4.90;99.90;;;;;;4955289;28;20306;-76
2020/12/26 11:13:51;;;;;;;8.77;2.20;;;4.90;99.90;;;;;;4946559;28;20624;-76
2020/12/26 11:16:17;;;;;;;3.37;1.80;;;5.00;99.90;;;;;;4956106;28;20829;-77
2020/12/26 11:18:45;;;;;;;4.40;1.90;;;5.10;99.90;;;;;;4973672;28;20426;-76
2020/12/26 11:21:17;;;;;;;5.13;2.20;;;5.10;99.90;;;;;;4973376;28;20211;-77
2020/12/26 11:23:43;;;;;;;3.53;2.42;;;5.00;99.90;;;;;;4962666;28;20184;-76
2020/12/26 11:26:12;;;;;;;4.83;2.13;;;5.10;99.90;;;;;;4936736;29;20215;-77
2020/12/26 11:28:39;;;;;;;5.03;2.38;;;5.00;99.90;;;;;;4964080;28;20450;-76
2020/12/26 11:31:05;;;;;;;3.75;2.10;;;5.00;99.90;;;;;;4973951;28;20223;-76
2020/12/26 11:33:31;;;;;;;3.05;1.70;;;5.10;99.90;;;;;;4972634;28;20253;-76
2020/12/26 11:35:57;;;;;;;3.38;2.03;;;5.10;99.90;;;;;;4936555;29;20586;-75
2020/12/26 11:38:23;;;;;;;5.10;2.20;;;5.10;99.90;;;;;;4964973;28;20175;-75
2020/12/26 11:40:48;;;;;;;4.37;2.30;;;5.10;99.90;;;;;;4956013;28;20219;-75
2020/12/26 11:43:14;;;;;;;2.23;1.70;;;5.20;99.90;;;;;;4983551;28;20240;-75
2020/12/26 11:45:40;;;;;;;2.97;1.93;;;5.20;99.90;;;;;;4992628;28;20211;-76
2020/12/26 11:48:05;;;;;;;6.43;2.20;;;5.20;99.90;;;;;;4984255;28;20186;-77
2020/12/26 11:50:32;;;;;;;2.00;1.67;;;5.20;99.90;;;;;;4953028;28;20215;-76
2020/12/26 11:52:58;;;;;;;2.33;1.77;;;5.30;99.90;;;;;;4953308;28;20191;-76
2020/12/26 11:55:23;;;;;;;3.33;1.73;;;5.30;99.90;;;;;;4940986;28;20221;-76
2020/12/26 11:57:49;;;;;;;4.50;2.10;;;5.30;99.90;;;;;;4936955;29;20175;-77
2020/12/26 12:00:15;;;;;;;1.97;1.43;;;5.30;99.90;;;;;;4957833;28;20454;-76
2020/12/26 12:02:41;;;;;;;2.43;1.50;;;5.30;99.90;;;;;;4973523;28;20737;-76
2020/12/26 12:05:10;;;;;;;4.97;2.10;;;5.30;99.90;;;;;;4969486;28;20233;-76
2020/12/26 12:07:36;;;;;;;2.30;1.48;;;5.40;99.90;;;;;;4953934;28;20191;-76
2020/12/26 12:10:03;;;;;;;5.10;1.40;;;5.40;99.90;;;;;;4949175;28;20258;-76
2020/12/26 12:12:29;;;;;;;3.95;1.58;;;5.40;99.90;;;;;;4971532;28;20187;-77
2020/12/26 12:14:55;;;;;;;1.40;1.27;;;5.40;99.90;;;;;;4954871;28;20197;-76
2020/12/26 12:17:20;;;;;;;1.63;1.00;;;5.50;99.90;;;;;;4956730;28;20226;-75
2020/12/26 12:19:46;;;;;;;2.30;1.50;;;5.50;99.90;;;;;;4971354;28;20242;-75
2020/12/26 12:22:12;;;;;;;3.13;1.67;;;5.50;99.90;;;;;;4971748;28;20207;-76
2020/12/26 12:24:38;;;;;;;2.33;1.43;;;5.50;99.90;;;;;;4972156;28;20175;-76
2020/12/26 12:27:03;;;;;;;2.20;1.40;;;5.50;99.90;;;;;;4971957;28;20218;-77
2020/12/26 12:29:29;;;;;;;3.07;1.43;;;5.50;99.90;;;;;;4948332;28;20993;-76
2020/12/26 12:31:55;;;;;;;7.07;1.10;;;5.50;99.90;;;;;;4953865;28;20225;-77
2020/12/26 12:34:22;;;;;;;2.27;1.23;;;5.50;99.90;;;;;;4964222;28;20653;-77
2020/12/26 12:36:48;;;;;;;1.15;0.95;;;5.60;99.90;;;;;;4953450;28;20227;-76
2020/12/26 12:39:14;;;;;;;2.15;1.30;;;5.60;99.90;;;;;;4941157;28;20641;-76
2020/12/26 12:41:40;;;;;;;2.20;1.33;;;5.60;99.90;;;;;;4972221;28;20221;-76
2020/12/26 12:44:06;;;;;;;3.97;1.17;;;5.60;99.90;;;;;;4969596;28;20420;-77
2020/12/26 12:46:32;;;;;;;6.13;1.77;;;5.60;99.90;;;;;;4972900;28;20582;-76
2020/12/26 12:48:57;;;;;;;3.13;1.20;;;5.70;99.90;;;;;;4968459;28;20492;-75